Armonk, New York
Current Conditions -  °F | °C
As of 5:56 AM on Friday 24 Oct 2014 (Local Time) from KHPN Reporting Station
Light Rain Light Rain  
Wind Chill: 45°   Ceiling: Unl
Heat Index: 49°   Visibility: 10mi
Dew Point: 43°   Wind: 10mph
Humidity: 80%   Direction: 310°NW
Pressure: 29.77"   Gusts: NA
Location:  41.13°N, 73.71°W
Report Text: KHPN 240956Z 31009KT 10SM -RA FEW044 SCT080 09/06 A2977 RMK AO2 RAB54 SLP083 P0000 T00940061
Loading
Personal Weather Stations






























Interactive Weather Map
Tropical Storm Tracking
New forecast layout! Learn more

10-Day Weather Forecast

Advertisements
Track Severe Weather on mobile